createdAt,value
2019-04-06T00:04:37.896Z,62493.88
2019-04-06T00:07:04.143Z,62485.86
2019-04-06T00:09:50.155Z,62483.37
2019-04-06T00:12:16.435Z,62474.27
2019-04-06T00:14:42.692Z,62472.30
2019-04-06T00:17:09.012Z,62467.43
2019-04-06T00:19:35.284Z,62473.66
2019-04-06T00:22:01.519Z,62469.24
2019-04-06T00:24:27.779Z,62468.92
2019-04-06T00:26:54.016Z,62471.30
2019-04-06T00:29:20.269Z,62466.21
2019-04-06T00:32:06.373Z,62458.54
2019-04-06T00:37:06.758Z,62453.85
2019-04-06T00:39:33.009Z,62448.85
2019-04-06T00:41:59.242Z,62404.30
2019-04-06T00:44:25.508Z,62431.27
2019-04-06T00:46:51.740Z,62418.94
2019-04-06T00:49:17.995Z,62409.38
2019-04-06T00:51:44.239Z,62407.75
2019-04-06T00:54:10.483Z,62404.91
2019-04-06T00:56:36.711Z,62406.39
2019-04-06T00:59:02.963Z,62398.54
2019-04-06T01:01:29.350Z,62398.19
2019-04-06T01:03:55.644Z,62400.02
2019-04-06T01:06:21.896Z,62400.76
2019-04-06T01:08:48.153Z,62398.41
2019-04-06T01:11:22.096Z,62394.20
2019-04-06T01:13:48.332Z,62403.27
2019-04-06T01:16:14.580Z,62407.22
2019-04-06T01:18:40.872Z,62412.29
2019-04-06T01:21:07.267Z,62411.00
2019-04-06T01:23:33.526Z,62411.54
2019-04-06T01:26:07.175Z,62399.96
2019-04-06T01:28:27.935Z,62424.23
2019-04-06T01:30:54.211Z,62433.24
2019-04-06T01:33:20.445Z,62440.29
2019-04-06T01:35:46.698Z,62443.76
2019-04-06T01:38:12.936Z,62448.43
2019-04-06T01:40:39.201Z,62456.10
2019-04-06T01:43:05.435Z,62458.26
2019-04-06T01:45:31.746Z,62454.39
2019-04-06T01:47:58.032Z,62459.70
2019-04-06T01:50:24.290Z,62461.86
2019-04-06T01:52:50.545Z,62464.03
2019-04-06T01:55:16.798Z,62464.57
2019-04-06T01:57:43.044Z,62462.54
2019-04-06T02:03:02.769Z,62464.03
2019-04-06T02:05:29.150Z,62458.87
2019-04-06T02:07:55.367Z,62459.48
2019-04-06T02:10:21.606Z,62427.54
2019-04-06T02:12:47.862Z,62457.87
2019-04-06T02:15:14.197Z,62454.07
2019-04-06T02:17:40.462Z,62451.14
2019-04-06T02:20:07.016Z,62448.98
2019-04-06T02:25:27.094Z,62450.46
2019-04-06T02:27:53.350Z,62428.89
2019-04-06T02:33:27.136Z,62444.44
2019-04-06T02:39:00.805Z,62447.08
2019-04-06T02:41:46.795Z,62443.96
2019-04-06T02:44:54.647Z,62448.70
2019-04-06T02:47:20.872Z,62447.95
2019-04-06T02:49:47.121Z,62442.80
2019-04-06T02:52:13.359Z,62446.27
2019-04-06T02:54:39.859Z,62451.01
2019-04-06T02:57:06.146Z,62450.81
2019-04-06T02:59:32.395Z,62452.10
2019-04-06T03:01:58.630Z,62451.34
2019-04-06T03:04:24.909Z,62453.17
2019-04-06T03:06:51.163Z,62448.30
2019-04-06T03:09:17.395Z,62456.23
2019-04-06T03:11:43.655Z,62460.77
2019-04-06T03:14:09.925Z,62463.15
2019-04-06T03:16:36.280Z,62461.25
2019-04-06T03:19:02.687Z,62463.83
2019-04-06T03:21:28.935Z,62466.21
2019-04-06T03:23:55.172Z,62465.46
2019-04-06T03:26:21.417Z,62470.21
2019-04-06T03:28:47.650Z,62468.50
2019-04-06T03:31:14.222Z,62469.94
2019-04-06T03:33:40.477Z,62475.10
2019-04-06T03:36:06.710Z,62473.59
2019-04-06T03:38:32.966Z,62477.06
2019-04-06T03:40:59.211Z,62478.55
2019-04-06T03:43:25.627Z,62480.71
2019-04-06T03:45:51.886Z,62476.64
2019-04-06T03:48:18.117Z,62483.64
2019-04-06T03:50:44.384Z,62482.15
2019-04-06T03:53:10.615Z,62480.10
2019-04-06T03:55:36.894Z,62478.81
2019-04-06T03:58:03.148Z,62480.99
2019-04-06T04:00:29.374Z,62484.66
2019-04-06T04:02:55.604Z,62488.11
2019-04-06T04:05:21.883Z,62485.19
2019-04-06T04:07:48.143Z,62483.15
2019-04-06T04:10:35.147Z,62486.15
2019-04-06T04:13:01.382Z,62480.03
2019-04-06T04:15:27.612Z,62486.28
2019-04-06T04:17:53.863Z,62489.60
2019-04-06T04:20:20.092Z,62485.34
2019-04-06T04:22:46.353Z,62486.41
2019-04-06T04:25:12.629Z,62486.96
2019-04-06T04:30:15.230Z,62488.05
2019-04-06T04:32:41.300Z,62488.59
2019-04-06T04:35:07.645Z,62487.15
2019-04-06T04:37:33.894Z,62485.86
2019-04-06T04:40:00.135Z,62488.11
2019-04-06T04:42:26.389Z,62487.02
2019-04-06T04:44:52.628Z,62491.02
2019-04-06T04:47:18.877Z,62491.30
2019-04-06T04:49:45.136Z,62497.88
2019-04-06T04:52:11.391Z,62499.17
2019-04-06T04:54:37.633Z,62496.59
2019-04-06T04:57:03.887Z,62495.43
2019-04-06T04:59:30.146Z,62500.06
2019-04-06T05:01:56.396Z,62500.19
2019-04-06T05:04:22.642Z,62502.36
2019-04-06T05:06:48.878Z,62508.74
2019-04-06T05:09:15.124Z,62510.03
2019-04-06T05:11:41.366Z,62508.26
2019-04-06T05:14:47.126Z,62505.83
2019-04-06T05:17:13.407Z,62510.70
2019-04-06T05:19:39.647Z,62499.91
2019-04-06T05:22:05.881Z,62502.48
2019-04-06T05:24:32.137Z,62506.36
2019-04-06T05:26:58.372Z,62504.19
2019-04-06T05:29:24.683Z,62495.84
2019-04-06T05:31:50.975Z,62496.94
2019-04-06T05:34:17.229Z,62500.74
2019-04-06T05:36:43.492Z,62506.51
2019-04-06T05:39:09.735Z,62499.84
2019-04-06T05:41:35.968Z,62506.57
2019-04-06T05:44:02.425Z,62509.28
2019-04-06T05:46:28.736Z,62510.70
2019-04-06T05:48:55.015Z,62517.21
2019-04-06T05:51:21.265Z,62525.91
2019-04-06T05:53:47.562Z,62531.13
2019-04-06T05:56:13.775Z,62538.06
2019-04-06T05:58:41.275Z,62534.19
2019-04-06T06:01:10.347Z,62536.57
2019-04-06T06:03:40.136Z,62538.12
2019-04-06T06:06:04.967Z,62551.98
2019-04-06T06:08:31.251Z,62561.95
2019-04-06T06:10:57.503Z,62567.17
2019-04-06T06:13:23.948Z,62561.33
2019-04-06T06:15:50.214Z,62566.10
2019-04-06T06:18:25.840Z,62574.04
2019-04-06T06:20:45.269Z,62568.26
2019-04-06T06:23:11.629Z,62562.08
2019-04-06T06:25:37.876Z,62569.55
2019-04-06T06:28:13.745Z,62571.52
2019-04-06T06:30:32.330Z,62577.77
2019-04-06T06:32:58.566Z,62590.00
2019-04-06T06:35:24.811Z,62592.31
2019-04-06T06:37:51.054Z,62599.57
2019-04-06T06:40:17.322Z,62594.68
2019-04-06T06:42:43.557Z,62581.57
2019-04-06T06:45:10.078Z,62575.80
2019-04-06T06:47:36.408Z,62568.26
2019-04-06T06:53:03.193Z,62590.67
2019-04-06T06:55:29.457Z,62594.74
2019-04-06T06:57:55.704Z,62581.09
2019-04-06T07:00:21.948Z,62582.59
2019-04-06T07:02:48.194Z,62588.70
2019-04-06T07:05:14.435Z,62588.70
2019-04-06T07:07:40.689Z,62594.12
2019-04-06T07:10:07.023Z,62598.28
2019-04-06T07:12:33.271Z,62605.54
2019-04-06T07:14:59.509Z,62610.84
2019-04-06T07:17:25.776Z,62606.43
2019-04-06T07:19:52.007Z,62607.73
2019-04-06T07:22:18.267Z,62603.03
2019-04-06T07:24:44.504Z,62604.12
2019-04-06T07:27:11.035Z,62606.43
2019-04-06T07:29:37.279Z,62622.60
2019-04-06T07:32:03.560Z,62621.98
2019-04-06T07:34:29.793Z,62631.83
2019-04-06T07:36:56.051Z,62651.41
2019-04-06T07:39:22.308Z,62664.52
2019-04-06T07:41:48.542Z,62657.93
2019-04-06T07:44:14.781Z,62656.64
2019-04-06T07:46:41.023Z,62655.07
2019-04-06T07:49:09.317Z,62650.12
2019-04-06T07:51:35.407Z,62667.39
2019-04-06T07:54:01.654Z,62680.57
2019-04-06T07:56:27.911Z,62695.79
2019-04-06T07:58:54.151Z,62709.05
2019-04-06T08:01:20.402Z,62696.88
2019-04-06T08:03:46.865Z,62695.04
2019-04-06T08:06:13.094Z,62708.91
2019-04-06T08:08:39.341Z,62706.74
2019-04-06T08:11:05.574Z,62721.23
2019-04-06T08:13:31.839Z,62734.08
2019-04-06T08:15:58.081Z,62740.48
2019-04-06T08:18:24.338Z,62745.09
2019-04-06T08:20:50.671Z,62752.79
2019-04-06T08:23:16.915Z,62769.30
2019-04-06T08:25:43.173Z,62761.63
2019-04-06T08:28:09.421Z,62761.08
2019-04-06T08:30:44.808Z,62763.32
2019-04-06T08:33:04.103Z,62773.12
2019-04-06T08:35:30.422Z,62810.14
2019-04-06T08:37:56.649Z,62833.48
2019-04-06T08:40:22.897Z,62881.62
2019-04-06T08:42:49.132Z,62917.47
2019-04-06T08:45:15.399Z,62937.98
2019-04-06T08:47:41.690Z,62974.72
2019-04-06T08:50:08.227Z,62978.66
2019-04-06T08:52:34.422Z,63009.42
2019-04-06T08:55:00.657Z,63064.12
2019-04-06T08:57:26.895Z,63101.11
2019-04-06T08:59:53.142Z,63056.48
2019-04-06T09:02:19.375Z,63090.07
2019-04-06T09:04:45.648Z,63149.41
2019-04-06T09:07:11.879Z,63229.97
2019-04-06T09:09:38.122Z,63289.29
2019-04-06T09:12:04.375Z,63343.66
2019-04-06T09:14:30.641Z,63379.12
2019-04-06T09:16:56.876Z,63356.81
2019-04-06T09:19:23.127Z,63392.08
2019-04-06T09:21:49.511Z,63398.32
2019-04-06T09:24:15.860Z,63442.55
2019-04-06T09:26:42.307Z,63419.88
2019-04-06T09:29:08.584Z,63447.06
2019-04-06T09:31:35.167Z,63415.61
2019-04-06T09:34:01.404Z,63481.89
2019-04-06T09:36:27.672Z,63518.54
2019-04-06T09:38:53.905Z,63493.43
2019-04-06T09:41:20.163Z,63516.93
2019-04-06T09:43:46.408Z,63551.44
2019-04-06T09:46:32.509Z,63589.53
2019-04-06T09:49:18.535Z,63626.73
2019-04-06T09:52:04.844Z,63653.30
2019-04-06T09:57:38.492Z,63651.89
2019-04-06T10:00:46.052Z,63670.54
2019-04-06T10:08:40.189Z,63639.46
2019-04-06T10:19:25.449Z,63665.93
2019-04-06T10:22:11.421Z,63663.52
2019-04-06T10:24:57.512Z,63664.39
2019-04-06T10:27:43.511Z,63673.83
2019-04-06T10:33:22.417Z,63585.25
2019-04-06T10:36:08.726Z,63593.79
2019-04-06T10:38:54.797Z,63582.15
2019-04-06T10:41:40.828Z,63598.96
2019-04-06T10:44:26.815Z,63605.89
2019-04-06T10:47:12.820Z,63643.63
2019-04-06T10:52:33.265Z,63659.01
2019-04-06T10:55:19.278Z,63656.04
2019-04-06T10:58:05.282Z,63654.40
2019-04-06T11:00:51.299Z,63644.73
2019-04-06T11:03:37.299Z,63685.57
2019-04-06T11:06:45.125Z,63680.87
2019-04-06T11:09:31.184Z,63686.89
2019-04-06T11:12:17.220Z,63679.86
2019-04-06T11:15:03.468Z,63680.64
2019-04-06T11:20:44.884Z,63676.92
2019-04-06T11:23:30.881Z,63699.97
2019-04-06T11:26:16.889Z,63712.82
2019-04-06T11:31:50.757Z,63713.28
2019-04-06T11:34:37.223Z,63731.06
2019-04-06T11:37:23.249Z,63730.39
2019-04-06T11:42:56.850Z,63731.39
2019-04-06T11:45:42.856Z,63752.16
2019-04-06T11:48:28.870Z,63778.89
2019-04-06T11:54:12.229Z,63765.16
2019-04-06T11:56:58.197Z,63764.59
2019-04-06T11:59:44.202Z,63754.37
2019-04-06T12:07:51.503Z,63754.72
2019-04-06T12:10:37.512Z,63746.10
2019-04-06T12:13:23.498Z,63752.37
2019-04-06T12:21:17.417Z,63774.37
2019-04-06T12:24:03.486Z,63792.17
2019-04-06T12:26:49.643Z,63763.04
2019-04-06T12:29:35.685Z,63741.84
2019-04-06T12:32:21.669Z,63726.13
2019-04-06T12:35:07.686Z,63736.01
2019-04-06T12:37:53.672Z,63737.54
2019-04-06T12:40:39.682Z,63732.93
2019-04-06T12:43:25.670Z,63729.29
2019-04-06T12:48:45.808Z,63734.59
2019-04-06T12:51:31.854Z,63712.72
2019-04-06T12:54:18.722Z,63726.66
2019-04-06T12:57:07.567Z,63703.05
2019-04-06T12:59:53.692Z,63699.86
2019-04-06T13:02:39.697Z,63707.66
2019-04-06T13:05:25.918Z,63677.45
2019-04-06T13:08:24.827Z,63622.98
2019-04-06T13:11:11.122Z,63579.06
2019-04-06T13:13:57.446Z,63561.10
2019-04-06T13:16:43.541Z,63551.77
2019-04-06T13:19:29.711Z,63543.32
2019-04-06T13:22:15.794Z,63561.77
2019-04-06T13:25:02.917Z,63559.33
2019-04-06T13:27:49.388Z,63528.20
2019-04-06T13:33:23.350Z,63509.09
2019-04-06T13:36:09.369Z,63474.13
2019-04-06T13:41:29.448Z,63430.52
2019-04-06T13:44:15.840Z,63412.56
2019-04-06T13:47:01.859Z,63392.75
2019-04-06T13:52:28.684Z,63364.80
2019-04-06T13:55:14.760Z,63365.24
2019-04-06T14:00:48.405Z,63363.04
2019-04-06T14:03:34.721Z,63367.30
2019-04-06T14:06:20.740Z,63372.23
2019-04-06T14:09:06.774Z,63371.14
2019-04-06T14:11:53.056Z,63399.51
2019-04-06T14:14:39.055Z,63393.85
2019-04-06T14:17:25.069Z,63382.66
2019-04-06T14:22:58.666Z,63385.71
2019-04-06T14:25:45.721Z,63390.56
2019-04-06T14:31:29.934Z,63415.96
2019-04-06T14:34:15.485Z,63421.20
2019-04-06T14:39:35.509Z,63410.50
2019-04-06T14:42:21.735Z,63399.54
2019-04-06T14:47:55.333Z,63388.24
2019-04-06T14:50:41.704Z,63380.78
2019-04-06T14:53:27.954Z,63371.77
2019-04-06T15:04:09.173Z,63315.96
2019-04-06T15:06:55.290Z,63299.55
2019-04-06T15:09:41.349Z,63288.73
2019-04-06T15:12:27.783Z,63285.88
2019-04-06T15:15:14.193Z,63280.83
2019-04-06T15:18:00.167Z,63268.59
2019-04-06T15:20:46.191Z,63268.24
2019-04-06T15:23:32.197Z,63257.65
2019-04-06T15:26:18.325Z,63246.63
2019-04-06T15:29:04.408Z,63236.44
2019-04-06T15:31:51.779Z,63225.30
2019-04-06T15:37:12.367Z,63220.46
2019-04-06T15:39:58.611Z,63212.82
2019-04-06T15:42:44.575Z,63198.38
2019-04-06T15:45:30.592Z,63195.62
2019-04-06T15:48:16.595Z,63173.79
2019-04-06T15:53:42.219Z,63152.28
2019-04-06T15:56:28.293Z,63128.23
2019-04-06T15:59:14.276Z,63102.21
2019-04-06T16:02:02.954Z,63094.16
2019-04-06T16:04:48.166Z,63101.11
2019-04-06T16:07:34.242Z,63094.48
2019-04-06T16:10:20.602Z,63097.71
2019-04-06T16:13:06.615Z,63087.39
2019-04-06T16:15:52.614Z,63078.20
2019-04-06T16:18:38.631Z,63074.29
2019-04-06T16:24:12.648Z,63067.05
2019-04-06T16:29:32.995Z,63053.41
2019-04-06T16:32:19.100Z,63039.09
2019-04-06T16:35:05.379Z,63031.66
2019-04-06T16:37:51.725Z,63027.63
2019-04-06T16:40:37.706Z,63013.57
2019-04-06T16:43:24.620Z,63010.05
2019-04-06T16:48:58.379Z,62988.70
2019-04-06T16:51:44.368Z,62987.13
2019-04-06T16:59:38.277Z,62954.67
2019-04-06T17:04:58.231Z,62934.29
2019-04-06T17:10:32.186Z,62920.66
2019-04-06T17:13:18.286Z,62909.76
2019-04-06T17:16:04.276Z,62905.39
2019-04-06T17:21:24.075Z,62889.25
2019-04-06T17:24:29.876Z,62872.92
2019-04-06T17:27:16.208Z,62857.58
2019-04-06T17:30:02.238Z,62854.39
2019-04-06T17:32:48.220Z,62837.64
2019-04-06T17:35:34.672Z,62821.98
2019-04-06T17:38:20.952Z,62813.54
2019-04-06T17:43:41.573Z,62795.16
2019-04-06T17:49:02.218Z,62770.88
2019-04-06T17:51:48.522Z,62766.04
2019-04-06T17:54:34.893Z,62753.86
2019-04-06T18:00:00.659Z,62744.36
2019-04-06T18:02:50.010Z,62728.30
2019-04-06T18:05:34.587Z,62716.25
2019-04-06T18:08:20.612Z,62708.64
2019-04-06T18:11:06.603Z,62699.40
2019-04-06T18:16:07.043Z,62688.59
2019-04-06T18:18:35.230Z,62681.10
2019-04-06T18:21:03.305Z,62681.18
2019-04-06T18:23:30.047Z,62670.23
2019-04-06T18:25:57.723Z,62664.80
2019-04-06T18:28:24.059Z,62660.10
2019-04-06T18:33:38.063Z,62648.48
2019-04-06T18:36:04.352Z,62641.76
2019-04-06T18:41:04.792Z,62632.51
2019-04-06T18:43:32.660Z,62631.51
2019-04-06T18:45:58.882Z,62625.86
2019-04-06T18:48:25.137Z,62621.51
2019-04-06T18:50:51.785Z,62615.54
2019-04-06T18:53:20.488Z,62611.53
2019-04-06T18:55:47.042Z,62603.30
2019-04-06T18:58:15.378Z,62605.76
2019-04-06T19:03:19.413Z,62594.35
2019-04-06T19:05:45.671Z,62585.25
2019-04-06T19:08:12.049Z,62578.71
2019-04-06T19:13:18.273Z,62570.36
2019-04-06T19:15:45.912Z,62568.81
2019-04-06T19:18:12.167Z,62561.33
2019-04-06T19:20:38.451Z,62559.91
2019-04-06T19:23:04.695Z,62550.47
2019-04-06T19:25:30.951Z,62547.96
2019-04-06T19:27:57.192Z,62539.08
2019-04-06T19:30:23.948Z,62534.93
2019-04-06T19:32:50.597Z,62527.68
2019-04-06T19:35:16.997Z,62519.87
2019-04-06T19:37:43.281Z,62518.98
2019-04-06T19:40:50.858Z,62514.85
2019-04-06T19:43:18.546Z,62512.34
2019-04-06T19:45:45.535Z,62504.80
2019-04-06T19:48:12.473Z,62494.01
2019-04-06T19:50:40.749Z,62499.45
2019-04-06T19:53:08.520Z,62486.76
2019-04-06T19:55:34.768Z,62484.99
2019-04-06T19:58:01.310Z,62484.66
2019-04-06T20:00:27.681Z,62475.16
2019-04-06T20:02:54.016Z,62477.06
2019-04-06T20:05:20.703Z,62465.59
2019-04-06T20:07:46.936Z,62463.41
2019-04-06T20:10:13.183Z,62464.70
2019-04-06T20:12:39.433Z,62388.79
2019-04-06T20:15:47.446Z,62457.65
2019-04-06T20:18:13.841Z,62456.43
2019-04-06T20:20:40.099Z,62448.76
2019-04-06T20:23:06.384Z,62447.34
2019-04-06T20:25:32.947Z,62443.21
2019-04-06T20:28:00.823Z,62405.93
2019-04-06T20:30:27.182Z,62442.19
2019-04-06T20:35:47.595Z,62438.00
2019-04-06T20:38:15.221Z,62434.88
2019-04-06T20:40:43.553Z,62433.46
2019-04-06T20:43:09.787Z,62431.82
2019-04-06T20:45:36.038Z,62427.41
2019-04-06T20:48:02.897Z,62428.89
2019-04-06T20:50:30.874Z,62428.89
2019-04-06T20:52:57.125Z,62429.86
2019-04-06T20:55:23.400Z,62428.57
2019-04-06T20:57:49.658Z,62423.68
2019-04-06T21:00:16.546Z,62417.46
2019-04-06T21:02:43.006Z,62417.72
2019-04-06T21:05:09.292Z,62421.17
2019-04-06T21:07:35.532Z,62385.93
2019-04-06T21:10:23.352Z,62416.63
2019-04-06T21:12:49.846Z,62414.80
2019-04-06T21:15:20.596Z,62420.84
2019-04-06T21:17:44.901Z,62418.27
2019-04-06T21:20:13.076Z,62417.30
2019-04-06T21:22:39.640Z,62418.59
2019-04-06T21:25:08.400Z,62419.68
2019-04-06T21:27:48.944Z,62420.97
2019-04-06T21:30:15.227Z,62422.06
2019-04-06T21:32:43.640Z,62420.03
2019-04-06T21:35:11.650Z,62419.81
2019-04-06T21:37:38.519Z,62423.48
2019-04-06T21:40:06.732Z,62427.54
2019-04-06T21:42:33.096Z,62420.23
2019-04-06T21:44:59.476Z,62418.20
2019-04-06T21:47:25.760Z,62416.98
2019-04-06T21:49:52.288Z,62419.75
2019-04-06T21:52:20.264Z,62419.95
2019-04-06T21:54:48.863Z,62427.28
2019-04-06T21:57:16.535Z,62417.30
2019-04-06T21:59:42.790Z,62418.05
2019-04-06T22:02:09.026Z,62417.37
2019-04-06T22:04:35.299Z,62412.76
2019-04-06T22:07:02.066Z,62417.37
2019-04-06T22:09:28.810Z,62416.08
2019-04-06T22:11:56.575Z,62416.63
2019-04-06T22:14:23.015Z,62415.21
2019-04-06T22:16:49.350Z,62416.85
2019-04-06T22:19:15.745Z,62414.66
2019-04-06T22:21:41.956Z,62410.60
2019-04-06T22:24:27.967Z,62415.56
2019-04-06T22:26:54.221Z,62415.76
2019-04-06T22:29:20.741Z,62421.85
2019-04-06T22:31:47.036Z,62416.85
2019-04-06T22:34:13.552Z,62419.42
2019-04-06T22:36:40.185Z,62410.60
2019-04-06T22:41:55.852Z,62410.47
2019-04-06T22:44:22.222Z,62405.71
2019-04-06T22:46:48.591Z,62404.64
2019-04-06T22:49:14.875Z,62406.13
2019-04-06T22:51:41.139Z,62401.46
2019-04-06T22:54:08.008Z,62400.37
2019-04-06T22:56:35.545Z,62395.61
2019-04-06T22:59:02.054Z,62400.02
2019-04-06T23:09:11.016Z,62396.09
2019-04-06T23:11:38.292Z,62387.89
2019-04-06T23:16:44.764Z,62378.42
2019-04-06T23:19:11.063Z,62380.30
2019-04-06T23:21:37.286Z,62378.14
2019-04-06T23:24:04.741Z,62377.04
2019-04-06T23:26:31.680Z,62378.14
2019-04-06T23:28:58.414Z,62378.68
2019-04-06T23:33:56.108Z,62375.62
2019-04-06T23:36:22.693Z,62372.73
2019-04-06T23:38:50.999Z,62372.18
2019-04-06T23:41:18.694Z,62368.16
2019-04-06T23:43:45.398Z,62380.84
2019-04-06T23:46:13.089Z,62372.73
2019-04-06T23:48:40.260Z,62370.35
2019-04-06T23:51:06.508Z,62370.35
2019-04-06T23:53:32.872Z,62370.35
2019-04-06T23:55:59.820Z,62370.00
2019-04-06T23:58:27.282Z,62373.53
